sensor_id;sensor_type;location;lat;lon;timestamp;P1;durP1;ratioP1;P2;durP2;ratioP2
18280;SDS011;9266;51.132;17.062;2023-03-05T00:02:19;10.40;;;5.77;;
18280;SDS011;9266;51.132;17.062;2023-03-05T00:04:46;11.07;;;5.80;;
18280;SDS011;9266;51.132;17.062;2023-03-05T00:07:13;9.67;;;5.90;;
18280;SDS011;9266;51.132;17.062;2023-03-05T00:09:40;10.93;;;6.07;;
18280;SDS011;9266;51.132;17.062;2023-03-05T00:12:07;9.33;;;5.73;;
18280;SDS011;9266;51.132;17.062;2023-03-05T00:14:36;10.27;;;6.43;;
18280;SDS011;9266;51.132;17.062;2023-03-05T00:17:03;10.63;;;6.03;;
18280;SDS011;9266;51.132;17.062;2023-03-05T00:19:30;14.57;;;6.60;;
18280;SDS011;9266;51.132;17.062;2023-03-05T00:21:57;11.67;;;6.00;;
18280;SDS011;9266;51.132;17.062;2023-03-05T00:24:24;11.83;;;6.00;;
18280;SDS011;9266;51.132;17.062;2023-03-05T00:26:51;12.33;;;6.20;;
18280;SDS011;9266;51.132;17.062;2023-03-05T00:29:20;9.70;;;6.20;;
18280;SDS011;9266;51.132;17.062;2023-03-05T00:31:48;11.53;;;6.67;;
18280;SDS011;9266;51.132;17.062;2023-03-05T00:34:16;10.17;;;6.33;;
18280;SDS011;9266;51.132;17.062;2023-03-05T00:36:44;10.27;;;6.50;;
18280;SDS011;9266;51.132;17.062;2023-03-05T00:39:13;11.57;;;7.27;;
18280;SDS011;9266;51.132;17.062;2023-03-05T00:41:41;9.73;;;6.43;;
18280;SDS011;9266;51.132;17.062;2023-03-05T00:44:09;9.10;;;7.03;;
18280;SDS011;9266;51.132;17.062;2023-03-05T00:46:36;9.97;;;6.97;;
18280;SDS011;9266;51.132;17.062;2023-03-05T00:49:05;9.30;;;6.10;;
18280;SDS011;9266;51.132;17.062;2023-03-05T00:51:33;10.37;;;6.60;;
18280;SDS011;9266;51.132;17.062;2023-03-05T00:54:00;10.97;;;7.10;;
18280;SDS011;9266;51.132;17.062;2023-03-05T00:56:27;9.00;;;6.43;;
18280;SDS011;9266;51.132;17.062;2023-03-05T00:58:54;11.63;;;6.83;;
18280;SDS011;9266;51.132;17.062;2023-03-05T01:01:21;11.30;;;6.20;;
18280;SDS011;9266;51.132;17.062;2023-03-05T01:03:48;11.97;;;6.27;;
18280;SDS011;9266;51.132;17.062;2023-03-05T01:06:17;9.87;;;5.57;;
18280;SDS011;9266;51.132;17.062;2023-03-05T01:08:44;8.37;;;5.20;;
18280;SDS011;9266;51.132;17.062;2023-03-05T01:11:11;8.50;;;5.07;;
18280;SDS011;9266;51.132;17.062;2023-03-05T01:13:39;7.77;;;4.93;;
18280;SDS011;9266;51.132;17.062;2023-03-05T01:16:06;10.37;;;5.33;;
18280;SDS011;9266;51.132;17.062;2023-03-05T01:18:33;13.37;;;5.00;;
18280;SDS011;9266;51.132;17.062;2023-03-05T01:21:02;9.60;;;4.83;;
18280;SDS011;9266;51.132;17.062;2023-03-05T01:23:31;7.77;;;4.60;;
18280;SDS011;9266;51.132;17.062;2023-03-05T01:25:59;8.63;;;4.80;;
18280;SDS011;9266;51.132;17.062;2023-03-05T01:28:26;6.57;;;4.70;;
18280;SDS011;9266;51.132;17.062;2023-03-05T01:30:54;9.83;;;4.50;;
18280;SDS011;9266;51.132;17.062;2023-03-05T01:33:21;7.37;;;4.50;;
18280;SDS011;9266;51.132;17.062;2023-03-05T01:35:48;6.80;;;4.60;;
18280;SDS011;9266;51.132;17.062;2023-03-05T01:38:16;9.30;;;4.60;;
18280;SDS011;9266;51.132;17.062;2023-03-05T01:40:45;10.17;;;4.50;;
18280;SDS011;9266;51.132;17.062;2023-03-05T01:43:20;8.07;;;4.40;;
18280;SDS011;9266;51.132;17.062;2023-03-05T01:48:47;7.87;;;4.30;;
18280;SDS011;9266;51.132;17.062;2023-03-05T01:51:17;9.80;;;4.70;;
18280;SDS011;9266;51.132;17.062;2023-03-05T01:53:46;8.47;;;4.17;;
18280;SDS011;9266;51.132;17.062;2023-03-05T01:56:15;4.90;;;3.63;;
18280;SDS011;9266;51.132;17.062;2023-03-05T01:58:43;7.20;;;4.20;;
18280;SDS011;9266;51.132;17.062;2023-03-05T02:01:11;7.03;;;4.00;;
18280;SDS011;9266;51.132;17.062;2023-03-05T02:03:38;6.90;;;4.70;;
18280;SDS011;9266;51.132;17.062;2023-03-05T02:06:06;9.27;;;4.17;;
18280;SDS011;9266;51.132;17.062;2023-03-05T02:08:33;5.77;;;4.07;;
18280;SDS011;9266;51.132;17.062;2023-03-05T02:11:01;8.57;;;3.87;;
18280;SDS011;9266;51.132;17.062;2023-03-05T02:13:30;8.33;;;3.77;;
18280;SDS011;9266;51.132;17.062;2023-03-05T02:16:00;6.70;;;3.80;;
18280;SDS011;9266;51.132;17.062;2023-03-05T02:18:27;7.07;;;4.20;;
18280;SDS011;9266;51.132;17.062;2023-03-05T02:21:00;5.17;;;3.90;;
18280;SDS011;9266;51.132;17.062;2023-03-05T02:23:29;9.00;;;3.93;;
18280;SDS011;9266;51.132;17.062;2023-03-05T02:26:00;6.43;;;4.33;;
18280;SDS011;9266;51.132;17.062;2023-03-05T02:28:29;8.53;;;4.53;;
18280;SDS011;9266;51.132;17.062;2023-03-05T02:30:58;7.20;;;4.90;;
18280;SDS011;9266;51.132;17.062;2023-03-05T02:33:25;7.90;;;5.23;;
18280;SDS011;9266;51.132;17.062;2023-03-05T02:35:53;6.80;;;4.87;;
18280;SDS011;9266;51.132;17.062;2023-03-05T02:38:21;9.67;;;4.83;;
18280;SDS011;9266;51.132;17.062;2023-03-05T02:40:48;13.13;;;5.27;;
18280;SDS011;9266;51.132;17.062;2023-03-05T02:43:15;8.27;;;5.30;;
18280;SDS011;9266;51.132;17.062;2023-03-05T02:45:42;7.93;;;4.73;;
18280;SDS011;9266;51.132;17.062;2023-03-05T02:48:10;9.33;;;4.73;;
18280;SDS011;9266;51.132;17.062;2023-03-05T02:50:37;6.83;;;4.50;;
18280;SDS011;9266;51.132;17.062;2023-03-05T02:53:04;7.33;;;4.73;;
18280;SDS011;9266;51.132;17.062;2023-03-05T02:55:33;7.37;;;4.97;;
18280;SDS011;9266;51.132;17.062;2023-03-05T02:58:00;5.53;;;4.70;;
18280;SDS011;9266;51.132;17.062;2023-03-05T03:00:27;6.90;;;4.07;;
18280;SDS011;9266;51.132;17.062;2023-03-05T03:02:55;6.00;;;3.90;;
18280;SDS011;9266;51.132;17.062;2023-03-05T03:05:22;6.23;;;3.90;;
18280;SDS011;9266;51.132;17.062;2023-03-05T03:07:49;5.00;;;3.20;;
18280;SDS011;9266;51.132;17.062;2023-03-05T03:10:16;5.87;;;2.97;;
18280;SDS011;9266;51.132;17.062;2023-03-05T03:12:45;5.80;;;3.07;;
18280;SDS011;9266;51.132;17.062;2023-03-05T03:15:12;5.87;;;3.43;;
18280;SDS011;9266;51.132;17.062;2023-03-05T03:17:41;6.40;;;3.43;;
18280;SDS011;9266;51.132;17.062;2023-03-05T03:20:08;4.97;;;3.40;;
18280;SDS011;9266;51.132;17.062;2023-03-05T03:22:38;4.63;;;3.20;;
18280;SDS011;9266;51.132;17.062;2023-03-05T03:25:06;4.37;;;3.30;;
18280;SDS011;9266;51.132;17.062;2023-03-05T03:27:34;6.00;;;3.40;;
18280;SDS011;9266;51.132;17.062;2023-03-05T03:30:03;5.77;;;3.23;;
18280;SDS011;9266;51.132;17.062;2023-03-05T03:32:31;6.70;;;3.80;;
18280;SDS011;9266;51.132;17.062;2023-03-05T03:34:59;6.70;;;3.77;;
18280;SDS011;9266;51.132;17.062;2023-03-05T03:37:28;5.23;;;3.50;;
18280;SDS011;9266;51.132;17.062;2023-03-05T03:39:55;5.63;;;3.30;;
18280;SDS011;9266;51.132;17.062;2023-03-05T03:42:23;5.77;;;3.40;;
18280;SDS011;9266;51.132;17.062;2023-03-05T03:44:50;6.47;;;3.30;;
18280;SDS011;9266;51.132;17.062;2023-03-05T03:47:18;5.70;;;3.40;;
18280;SDS011;9266;51.132;17.062;2023-03-05T03:49:45;4.70;;;3.20;;
18280;SDS011;9266;51.132;17.062;2023-03-05T03:52:19;9.07;;;3.90;;
18280;SDS011;9266;51.132;17.062;2023-03-05T03:54:47;5.00;;;3.10;;
18280;SDS011;9266;51.132;17.062;2023-03-05T03:57:14;4.33;;;3.10;;
18280;SDS011;9266;51.132;17.062;2023-03-05T03:59:41;5.63;;;3.37;;
18280;SDS011;9266;51.132;17.062;2023-03-05T04:02:10;4.03;;;3.20;;
18280;SDS011;9266;51.132;17.062;2023-03-05T04:04:38;4.57;;;3.17;;
18280;SDS011;9266;51.132;17.062;2023-03-05T04:07:05;4.13;;;3.03;;
18280;SDS011;9266;51.132;17.062;2023-03-05T04:09:33;5.47;;;3.37;;
18280;SDS011;9266;51.132;17.062;2023-03-05T04:12:00;5.40;;;3.37;;
18280;SDS011;9266;51.132;17.062;2023-03-05T04:14:27;5.17;;;3.37;;
18280;SDS011;9266;51.132;17.062;2023-03-05T04:16:54;4.00;;;3.53;;
18280;SDS011;9266;51.132;17.062;2023-03-05T04:19:21;5.37;;;3.67;;
18280;SDS011;9266;51.132;17.062;2023-03-05T04:21:50;7.13;;;3.80;;
18280;SDS011;9266;51.132;17.062;2023-03-05T04:24:17;7.43;;;4.10;;
18280;SDS011;9266;51.132;17.062;2023-03-05T04:26:44;4.47;;;3.60;;
18280;SDS011;9266;51.132;17.062;2023-03-05T04:29:11;6.97;;;4.10;;
18280;SDS011;9266;51.132;17.062;2023-03-05T04:31:38;6.07;;;4.03;;
18280;SDS011;9266;51.132;17.062;2023-03-05T04:34:05;4.90;;;3.80;;
18280;SDS011;9266;51.132;17.062;2023-03-05T04:36:32;8.43;;;4.70;;
18280;SDS011;9266;51.132;17.062;2023-03-05T04:39:00;7.07;;;4.17;;
18280;SDS011;9266;51.132;17.062;2023-03-05T04:41:28;5.27;;;4.03;;
18280;SDS011;9266;51.132;17.062;2023-03-05T04:43:55;8.53;;;4.73;;
18280;SDS011;9266;51.132;17.062;2023-03-05T04:46:22;5.30;;;4.13;;
18280;SDS011;9266;51.132;17.062;2023-03-05T04:48:49;6.17;;;4.17;;
18280;SDS011;9266;51.132;17.062;2023-03-05T04:51:16;6.30;;;4.57;;
18280;SDS011;9266;51.132;17.062;2023-03-05T04:53:43;9.27;;;4.60;;
18280;SDS011;9266;51.132;17.062;2023-03-05T04:56:12;7.03;;;5.10;;
18280;SDS011;9266;51.132;17.062;2023-03-05T04:58:39;8.07;;;4.83;;
18280;SDS011;9266;51.132;17.062;2023-03-05T05:01:06;6.00;;;4.63;;
18280;SDS011;9266;51.132;17.062;2023-03-05T05:03:33;7.43;;;5.37;;
18280;SDS011;9266;51.132;17.062;2023-03-05T05:06:00;8.50;;;5.10;;
18280;SDS011;9266;51.132;17.062;2023-03-05T05:08:27;6.60;;;5.00;;
18280;SDS011;9266;51.132;17.062;2023-03-05T05:10:55;7.80;;;5.80;;
18280;SDS011;9266;51.132;17.062;2023-03-05T05:13:25;8.17;;;5.27;;
18280;SDS011;9266;51.132;17.062;2023-03-05T05:15:52;8.63;;;5.30;;
18280;SDS011;9266;51.132;17.062;2023-03-05T05:18:20;8.23;;;5.47;;
18280;SDS011;9266;51.132;17.062;2023-03-05T05:20:47;7.20;;;5.00;;
18280;SDS011;9266;51.132;17.062;2023-03-05T05:23:15;6.53;;;4.67;;
18280;SDS011;9266;51.132;17.062;2023-03-05T05:25:42;8.10;;;5.27;;
18280;SDS011;9266;51.132;17.062;2023-03-05T05:28:09;7.53;;;5.20;;
18280;SDS011;9266;51.132;17.062;2023-03-05T05:30:38;8.93;;;4.70;;
18280;SDS011;9266;51.132;17.062;2023-03-05T05:33:05;8.67;;;4.77;;
18280;SDS011;9266;51.132;17.062;2023-03-05T05:35:34;6.33;;;4.40;;
18280;SDS011;9266;51.132;17.062;2023-03-05T05:38:04;8.67;;;4.70;;
18280;SDS011;9266;51.132;17.062;2023-03-05T05:40:31;5.13;;;3.60;;
18280;SDS011;9266;51.132;17.062;2023-03-05T05:42:58;4.33;;;3.90;;
18280;SDS011;9266;51.132;17.062;2023-03-05T05:45:25;5.93;;;4.63;;
18280;SDS011;9266;51.132;17.062;2023-03-05T05:47:54;7.80;;;4.67;;
18280;SDS011;9266;51.132;17.062;2023-03-05T05:50:21;7.03;;;4.97;;
18280;SDS011;9266;51.132;17.062;2023-03-05T05:52:49;7.30;;;4.97;;
18280;SDS011;9266;51.132;17.062;2023-03-05T05:55:17;7.00;;;5.20;;
18280;SDS011;9266;51.132;17.062;2023-03-05T05:57:44;7.20;;;5.03;;
18280;SDS011;9266;51.132;17.062;2023-03-05T06:00:12;8.87;;;5.30;;
18280;SDS011;9266;51.132;17.062;2023-03-05T06:02:40;8.30;;;5.00;;
18280;SDS011;9266;51.132;17.062;2023-03-05T06:05:10;8.13;;;5.07;;
18280;SDS011;9266;51.132;17.062;2023-03-05T06:07:39;7.77;;;5.10;;
18280;SDS011;9266;51.132;17.062;2023-03-05T06:10:06;7.63;;;4.83;;
18280;SDS011;9266;51.132;17.062;2023-03-05T06:12:35;9.73;;;5.13;;
18280;SDS011;9266;51.132;17.062;2023-03-05T06:15:02;7.53;;;5.37;;
18280;SDS011;9266;51.132;17.062;2023-03-05T06:17:30;9.30;;;6.20;;
18280;SDS011;9266;51.132;17.062;2023-03-05T06:19:57;16.33;;;12.27;;
18280;SDS011;9266;51.132;17.062;2023-03-05T06:22:26;16.07;;;10.97;;
18280;SDS011;9266;51.132;17.062;2023-03-05T06:24:53;19.70;;;9.03;;
18280;SDS011;9266;51.132;17.062;2023-03-05T06:27:21;11.87;;;7.20;;
18280;SDS011;9266;51.132;17.062;2023-03-05T06:29:50;15.60;;;7.77;;
18280;SDS011;9266;51.132;17.062;2023-03-05T06:32:18;20.63;;;9.30;;
18280;SDS011;9266;51.132;17.062;2023-03-05T06:34:45;18.43;;;8.80;;
18280;SDS011;9266;51.132;17.062;2023-03-05T06:37:12;19.87;;;9.70;;
18280;SDS011;9266;51.132;17.062;2023-03-05T06:39:40;20.17;;;9.90;;
18280;SDS011;9266;51.132;17.062;2023-03-05T06:42:08;21.27;;;11.93;;
18280;SDS011;9266;51.132;17.062;2023-03-05T06:44:36;17.77;;;10.33;;
18280;SDS011;9266;51.132;17.062;2023-03-05T06:47:04;23.53;;;11.57;;
18280;SDS011;9266;51.132;17.062;2023-03-05T06:49:31;20.57;;;11.90;;
18280;SDS011;9266;51.132;17.062;2023-03-05T06:51:58;18.57;;;11.80;;
18280;SDS011;9266;51.132;17.062;2023-03-05T06:54:26;15.57;;;9.73;;
18280;SDS011;9266;51.132;17.062;2023-03-05T06:56:55;18.53;;;9.93;;
18280;SDS011;9266;51.132;17.062;2023-03-05T06:59:22;19.20;;;9.67;;
18280;SDS011;9266;51.132;17.062;2023-03-05T07:01:49;22.47;;;9.20;;
18280;SDS011;9266;51.132;17.062;2023-03-05T07:04:16;15.90;;;9.20;;
18280;SDS011;9266;51.132;17.062;2023-03-05T07:06:43;18.87;;;9.60;;
18280;SDS011;9266;51.132;17.062;2023-03-05T07:09:12;18.43;;;9.37;;
18280;SDS011;9266;51.132;17.062;2023-03-05T07:11:40;21.33;;;9.50;;
18280;SDS011;9266;51.132;17.062;2023-03-05T07:14:09;19.20;;;9.67;;
18280;SDS011;9266;51.132;17.062;2023-03-05T07:16:36;20.10;;;9.53;;
18280;SDS011;9266;51.132;17.062;2023-03-05T07:19:04;17.10;;;8.73;;
18280;SDS011;9266;51.132;17.062;2023-03-05T07:21:32;14.10;;;8.30;;
18280;SDS011;9266;51.132;17.062;2023-03-05T07:24:00;17.40;;;9.00;;
18280;SDS011;9266;51.132;17.062;2023-03-05T07:26:29;15.03;;;8.07;;
18280;SDS011;9266;51.132;17.062;2023-03-05T07:28:58;22.30;;;8.33;;
18280;SDS011;9266;51.132;17.062;2023-03-05T07:31:27;16.40;;;7.93;;
18280;SDS011;9266;51.132;17.062;2023-03-05T07:33:56;17.63;;;8.53;;
18280;SDS011;9266;51.132;17.062;2023-03-05T07:36:24;13.00;;;7.20;;
18280;SDS011;9266;51.132;17.062;2023-03-05T07:38:51;12.33;;;7.10;;
18280;SDS011;9266;51.132;17.062;2023-03-05T07:41:19;10.10;;;6.43;;
18280;SDS011;9266;51.132;17.062;2023-03-05T07:43:48;12.80;;;6.10;;
18280;SDS011;9266;51.132;17.062;2023-03-05T07:46:16;12.53;;;6.37;;
18280;SDS011;9266;51.132;17.062;2023-03-05T07:48:46;13.50;;;6.47;;
18280;SDS011;9266;51.132;17.062;2023-03-05T07:51:14;13.90;;;5.60;;
18280;SDS011;9266;51.132;17.062;2023-03-05T07:53:44;13.43;;;5.73;;
18280;SDS011;9266;51.132;17.062;2023-03-05T07:56:12;16.27;;;5.07;;
18280;SDS011;9266;51.132;17.062;2023-03-05T07:58:39;12.00;;;4.73;;
18280;SDS011;9266;51.132;17.062;2023-03-05T08:01:09;10.80;;;5.57;;
18280;SDS011;9266;51.132;17.062;2023-03-05T08:03:38;8.17;;;4.90;;
18280;SDS011;9266;51.132;17.062;2023-03-05T08:06:07;8.93;;;4.27;;
18280;SDS011;9266;51.132;17.062;2023-03-05T08:08:35;7.17;;;4.30;;
18280;SDS011;9266;51.132;17.062;2023-03-05T08:11:03;8.80;;;4.40;;
18280;SDS011;9266;51.132;17.062;2023-03-05T08:13:31;8.93;;;4.17;;
18280;SDS011;9266;51.132;17.062;2023-03-05T08:15:58;9.47;;;4.10;;
18280;SDS011;9266;51.132;17.062;2023-03-05T08:18:25;7.87;;;3.87;;
18280;SDS011;9266;51.132;17.062;2023-03-05T08:20:52;8.53;;;3.40;;
18280;SDS011;9266;51.132;17.062;2023-03-05T08:23:21;6.13;;;3.03;;
18280;SDS011;9266;51.132;17.062;2023-03-05T08:25:48;5.13;;;3.30;;
18280;SDS011;9266;51.132;17.062;2023-03-05T08:28:15;3.40;;;2.57;;
18280;SDS011;9266;51.132;17.062;2023-03-05T08:30:44;3.80;;;2.40;;
18280;SDS011;9266;51.132;17.062;2023-03-05T08:33:11;3.53;;;2.80;;
18280;SDS011;9266;51.132;17.062;2023-03-05T08:35:39;7.97;;;3.20;;
18280;SDS011;9266;51.132;17.062;2023-03-05T08:38:06;5.30;;;3.30;;
18280;SDS011;9266;51.132;17.062;2023-03-05T08:40:35;6.20;;;3.57;;
18280;SDS011;9266;51.132;17.062;2023-03-05T08:43:02;8.40;;;3.70;;
18280;SDS011;9266;51.132;17.062;2023-03-05T08:45:31;6.50;;;4.10;;
18280;SDS011;9266;51.132;17.062;2023-03-05T08:47:58;6.90;;;4.03;;
18280;SDS011;9266;51.132;17.062;2023-03-05T08:50:25;10.20;;;4.20;;
18280;SDS011;9266;51.132;17.062;2023-03-05T08:52:52;7.63;;;4.37;;
18280;SDS011;9266;51.132;17.062;2023-03-05T08:55:21;8.47;;;4.40;;
18280;SDS011;9266;51.132;17.062;2023-03-05T08:57:49;7.67;;;4.90;;
18280;SDS011;9266;51.132;17.062;2023-03-05T09:00:17;8.27;;;4.43;;
18280;SDS011;9266;51.132;17.062;2023-03-05T09:02:44;9.80;;;4.53;;
18280;SDS011;9266;51.132;17.062;2023-03-05T09:05:12;8.33;;;4.30;;
18280;SDS011;9266;51.132;17.062;2023-03-05T09:07:39;9.53;;;5.40;;
18280;SDS011;9266;51.132;17.062;2023-03-05T09:10:06;8.77;;;4.67;;
18280;SDS011;9266;51.132;17.062;2023-03-05T09:12:35;7.00;;;4.80;;
18280;SDS011;9266;51.132;17.062;2023-03-05T09:15:04;10.17;;;5.53;;
18280;SDS011;9266;51.132;17.062;2023-03-05T09:17:33;8.27;;;4.43;;
18280;SDS011;9266;51.132;17.062;2023-03-05T09:20:00;10.27;;;5.03;;
18280;SDS011;9266;51.132;17.062;2023-03-05T09:22:27;10.57;;;5.30;;
18280;SDS011;9266;51.132;17.062;2023-03-05T09:24:54;9.37;;;5.33;;
18280;SDS011;9266;51.132;17.062;2023-03-05T09:27:21;13.17;;;6.00;;
18280;SDS011;9266;51.132;17.062;2023-03-05T09:29:49;10.03;;;6.67;;
18280;SDS011;9266;51.132;17.062;2023-03-05T09:32:18;9.73;;;6.30;;
18280;SDS011;9266;51.132;17.062;2023-03-05T09:34:46;10.80;;;6.33;;
18280;SDS011;9266;51.132;17.062;2023-03-05T09:37:13;6.73;;;5.40;;
18280;SDS011;9266;51.132;17.062;2023-03-05T09:39:40;7.53;;;5.37;;
18280;SDS011;9266;51.132;17.062;2023-03-05T09:42:16;8.63;;;5.50;;
18280;SDS011;9266;51.132;17.062;2023-03-05T09:45:11;7.97;;;5.43;;
18280;SDS011;9266;51.132;17.062;2023-03-05T09:47:50;8.70;;;5.63;;
18280;SDS011;9266;51.132;17.062;2023-03-05T09:50:27;8.10;;;5.47;;
18280;SDS011;9266;51.132;17.062;2023-03-05T09:53:12;7.20;;;5.43;;
18280;SDS011;9266;51.132;17.062;2023-03-05T09:55:47;8.10;;;5.00;;
18280;SDS011;9266;51.132;17.062;2023-03-05T09:58:18;7.10;;;4.70;;
18280;SDS011;9266;51.132;17.062;2023-03-05T10:00:54;10.87;;;5.80;;
18280;SDS011;9266;51.132;17.062;2023-03-05T10:03:28;8.37;;;5.87;;
18280;SDS011;9266;51.132;17.062;2023-03-05T10:05:59;8.47;;;5.30;;
18280;SDS011;9266;51.132;17.062;2023-03-05T10:08:33;8.23;;;4.77;;
18280;SDS011;9266;51.132;17.062;2023-03-05T10:11:15;7.07;;;5.10;;
18280;SDS011;9266;51.132;17.062;2023-03-05T10:13:55;9.13;;;5.23;;
18280;SDS011;9266;51.132;17.062;2023-03-05T10:19:26;11.57;;;6.30;;
18280;SDS011;9266;51.132;17.062;2023-03-05T10:22:11;9.00;;;5.17;;
18280;SDS011;9266;51.132;17.062;2023-03-05T10:24:46;7.13;;;4.37;;
18280;SDS011;9266;51.132;17.062;2023-03-05T10:27:29;7.23;;;4.97;;
18280;SDS011;9266;51.132;17.062;2023-03-05T10:30:03;7.73;;;4.43;;
18280;SDS011;9266;51.132;17.062;2023-03-05T10:32:43;6.37;;;4.40;;
18280;SDS011;9266;51.132;17.062;2023-03-05T10:35:27;10.23;;;4.20;;
18280;SDS011;9266;51.132;17.062;2023-03-05T10:38:23;7.70;;;3.80;;
18280;SDS011;9266;51.132;17.062;2023-03-05T10:41:15;8.50;;;4.00;;
18280;SDS011;9266;51.132;17.062;2023-03-05T10:43:53;5.07;;;3.63;;
18280;SDS011;9266;51.132;17.062;2023-03-05T10:46:28;5.50;;;4.27;;
18280;SDS011;9266;51.132;17.062;2023-03-05T10:49:00;7.23;;;4.10;;
18280;SDS011;9266;51.132;17.062;2023-03-05T10:51:35;7.97;;;4.00;;
18280;SDS011;9266;51.132;17.062;2023-03-05T10:54:08;7.30;;;4.03;;
18280;SDS011;9266;51.132;17.062;2023-03-05T10:56:43;6.93;;;4.00;;
18280;SDS011;9266;51.132;17.062;2023-03-05T10:59:10;5.57;;;3.93;;
18280;SDS011;9266;51.132;17.062;2023-03-05T11:01:37;10.10;;;4.20;;
18280;SDS011;9266;51.132;17.062;2023-03-05T11:04:05;7.43;;;4.13;;
18280;SDS011;9266;51.132;17.062;2023-03-05T11:06:36;6.73;;;4.23;;
18280;SDS011;9266;51.132;17.062;2023-03-05T11:09:15;9.63;;;5.10;;
18280;SDS011;9266;51.132;17.062;2023-03-05T11:11:45;8.63;;;5.50;;
18280;SDS011;9266;51.132;17.062;2023-03-05T11:14:31;10.00;;;5.63;;
18280;SDS011;9266;51.132;17.062;2023-03-05T12:53:42;8.13;;;5.20;;
18280;SDS011;9266;51.132;17.062;2023-03-05T12:56:12;8.37;;;5.37;;
18280;SDS011;9266;51.132;17.062;2023-03-05T12:58:46;8.57;;;5.20;;
18280;SDS011;9266;51.132;17.062;2023-03-05T13:01:19;8.33;;;4.97;;
18280;SDS011;9266;51.132;17.062;2023-03-05T13:03:55;5.63;;;4.67;;
18280;SDS011;9266;51.132;17.062;2023-03-05T13:06:26;8.43;;;5.00;;
18280;SDS011;9266;51.132;17.062;2023-03-05T13:08:57;7.10;;;5.40;;
18280;SDS011;9266;51.132;17.062;2023-03-05T13:11:26;9.53;;;5.63;;
18280;SDS011;9266;51.132;17.062;2023-03-05T13:13:55;12.50;;;6.63;;
18280;SDS011;9266;51.132;17.062;2023-03-05T13:16:23;8.40;;;6.10;;
18280;SDS011;9266;51.132;17.062;2023-03-05T13:18:53;9.47;;;6.33;;
18280;SDS011;9266;51.132;17.062;2023-03-05T13:21:23;11.57;;;7.17;;
18280;SDS011;9266;51.132;17.062;2023-03-05T13:23:52;9.27;;;6.57;;
18280;SDS011;9266;51.132;17.062;2023-03-05T13:26:25;9.50;;;6.20;;
18280;SDS011;9266;51.132;17.062;2023-03-05T13:29:04;9.47;;;6.03;;
18280;SDS011;9266;51.132;17.062;2023-03-05T13:31:32;11.70;;;7.00;;
18280;SDS011;9266;51.132;17.062;2023-03-05T13:34:06;10.73;;;7.43;;
18280;SDS011;9266;51.132;17.062;2023-03-05T13:36:37;8.73;;;6.50;;
18280;SDS011;9266;51.132;17.062;2023-03-05T13:39:04;14.83;;;7.57;;
18280;SDS011;9266;51.132;17.062;2023-03-05T13:41:33;10.23;;;7.40;;
18280;SDS011;9266;51.132;17.062;2023-03-05T13:44:01;10.63;;;6.87;;
18280;SDS011;9266;51.132;17.062;2023-03-05T13:46:29;9.13;;;6.43;;
18280;SDS011;9266;51.132;17.062;2023-03-05T13:48:59;8.80;;;5.57;;
18280;SDS011;9266;51.132;17.062;2023-03-05T13:51:43;7.40;;;5.80;;
18280;SDS011;9266;51.132;17.062;2023-03-05T13:54:12;7.57;;;6.00;;
18280;SDS011;9266;51.132;17.062;2023-03-05T13:56:52;10.10;;;7.73;;
18280;SDS011;9266;51.132;17.062;2023-03-05T13:59:21;9.90;;;6.80;;
18280;SDS011;9266;51.132;17.062;2023-03-05T14:01:49;9.97;;;7.23;;
18280;SDS011;9266;51.132;17.062;2023-03-05T14:04:18;14.57;;;6.57;;
18280;SDS011;9266;51.132;17.062;2023-03-05T14:06:48;8.37;;;6.40;;
18280;SDS011;9266;51.132;17.062;2023-03-05T14:09:20;12.90;;;7.07;;
18280;SDS011;9266;51.132;17.062;2023-03-05T14:11:53;13.17;;;6.73;;
18280;SDS011;9266;51.132;17.062;2023-03-05T14:14:22;9.23;;;6.03;;
18280;SDS011;9266;51.132;17.062;2023-03-05T14:16:50;8.73;;;6.57;;
18280;SDS011;9266;51.132;17.062;2023-03-05T14:19:28;8.83;;;6.80;;
18280;SDS011;9266;51.132;17.062;2023-03-05T14:21:58;8.03;;;5.80;;
18280;SDS011;9266;51.132;17.062;2023-03-05T14:24:26;8.10;;;5.10;;
18280;SDS011;9266;51.132;17.062;2023-03-05T14:26:57;6.90;;;4.67;;
18280;SDS011;9266;51.132;17.062;2023-03-05T14:29:29;9.40;;;5.23;;
18280;SDS011;9266;51.132;17.062;2023-03-05T14:31:58;8.13;;;4.90;;
18280;SDS011;9266;51.132;17.062;2023-03-05T14:34:30;6.07;;;4.73;;
18280;SDS011;9266;51.132;17.062;2023-03-05T14:37:01;6.73;;;4.83;;
18280;SDS011;9266;51.132;17.062;2023-03-05T14:39:39;6.73;;;4.23;;
18280;SDS011;9266;51.132;17.062;2023-03-05T14:45:09;6.57;;;4.47;;
18280;SDS011;9266;51.132;17.062;2023-03-05T14:47:37;5.67;;;3.90;;
18280;SDS011;9266;51.132;17.062;2023-03-05T14:50:04;7.07;;;4.23;;
18280;SDS011;9266;51.132;17.062;2023-03-05T14:52:32;6.47;;;4.73;;
18280;SDS011;9266;51.132;17.062;2023-03-05T14:55:00;6.30;;;4.07;;
18280;SDS011;9266;51.132;17.062;2023-03-05T14:57:27;7.67;;;5.13;;
18280;SDS011;9266;51.132;17.062;2023-03-05T14:59:58;6.87;;;5.47;;
18280;SDS011;9266;51.132;17.062;2023-03-05T15:02:25;5.43;;;4.87;;
18280;SDS011;9266;51.132;17.062;2023-03-05T15:04:53;5.73;;;5.23;;
18280;SDS011;9266;51.132;17.062;2023-03-05T15:07:21;7.57;;;6.80;;
18280;SDS011;9266;51.132;17.062;2023-03-05T15:09:50;8.73;;;5.63;;
18280;SDS011;9266;51.132;17.062;2023-03-05T15:12:17;8.30;;;5.53;;
18280;SDS011;9266;51.132;17.062;2023-03-05T15:14:48;7.30;;;5.63;;
18280;SDS011;9266;51.132;17.062;2023-03-05T15:17:17;12.67;;;6.30;;
18280;SDS011;9266;51.132;17.062;2023-03-05T15:19:47;8.37;;;5.60;;
18280;SDS011;9266;51.132;17.062;2023-03-05T15:22:14;7.63;;;4.83;;
18280;SDS011;9266;51.132;17.062;2023-03-05T15:24:42;15.47;;;8.63;;
18280;SDS011;9266;51.132;17.062;2023-03-05T15:27:09;12.77;;;7.33;;
18280;SDS011;9266;51.132;17.062;2023-03-05T15:29:37;9.20;;;5.27;;
18280;SDS011;9266;51.132;17.062;2023-03-05T15:32:04;9.47;;;6.30;;
18280;SDS011;9266;51.132;17.062;2023-03-05T15:34:33;9.00;;;5.60;;
18280;SDS011;9266;51.132;17.062;2023-03-05T15:37:00;8.90;;;5.07;;
18280;SDS011;9266;51.132;17.062;2023-03-05T15:39:28;10.40;;;5.40;;
18280;SDS011;9266;51.132;17.062;2023-03-05T15:41:55;12.63;;;5.63;;
18280;SDS011;9266;51.132;17.062;2023-03-05T15:44:22;7.63;;;6.70;;
18280;SDS011;9266;51.132;17.062;2023-03-05T15:46:50;8.20;;;5.30;;
18280;SDS011;9266;51.132;17.062;2023-03-05T15:49:17;10.03;;;6.53;;
18280;SDS011;9266;51.132;17.062;2023-03-05T15:51:46;9.17;;;6.43;;
18280;SDS011;9266;51.132;17.062;2023-03-05T15:54:13;9.63;;;6.17;;
18280;SDS011;9266;51.132;17.062;2023-03-05T15:56:41;11.40;;;5.70;;
18280;SDS011;9266;51.132;17.062;2023-03-05T15:59:08;8.60;;;6.40;;
18280;SDS011;9266;51.132;17.062;2023-03-05T16:01:35;12.73;;;8.30;;
18280;SDS011;9266;51.132;17.062;2023-03-05T16:04:03;14.93;;;7.83;;
18280;SDS011;9266;51.132;17.062;2023-03-05T16:06:30;11.00;;;7.23;;
18280;SDS011;9266;51.132;17.062;2023-03-05T16:09:00;11.07;;;7.30;;
18280;SDS011;9266;51.132;17.062;2023-03-05T16:11:29;12.03;;;7.73;;
18280;SDS011;9266;51.132;17.062;2023-03-05T16:13:58;11.90;;;6.90;;
18280;SDS011;9266;51.132;17.062;2023-03-05T16:16:28;9.50;;;6.80;;
18280;SDS011;9266;51.132;17.062;2023-03-05T16:18:56;12.17;;;7.33;;
18280;SDS011;9266;51.132;17.062;2023-03-05T16:21:23;15.40;;;8.30;;
18280;SDS011;9266;51.132;17.062;2023-03-05T16:23:51;14.70;;;9.33;;
18280;SDS011;9266;51.132;17.062;2023-03-05T16:26:19;12.90;;;8.47;;
18280;SDS011;9266;51.132;17.062;2023-03-05T16:28:46;14.50;;;8.57;;
18280;SDS011;9266;51.132;17.062;2023-03-05T16:31:13;12.03;;;7.77;;
18280;SDS011;9266;51.132;17.062;2023-03-05T16:33:40;8.97;;;6.17;;
18280;SDS011;9266;51.132;17.062;2023-03-05T16:36:16;10.17;;;6.43;;
18280;SDS011;9266;51.132;17.062;2023-03-05T16:38:48;12.47;;;7.43;;
18280;SDS011;9266;51.132;17.062;2023-03-05T16:41:17;13.90;;;7.53;;